sensor_id;sensor_type;location;lat;lon;timestamp;P1;durP1;ratioP1;P2;durP2;ratioP2
70744;SDS011;59284;31.390;34.904;2022-07-01T01:14:54;3.10;;;1.70;;
70744;SDS011;59284;31.390;34.904;2022-07-01T01:21:13;3.20;;;1.60;;
70744;SDS011;59284;31.390;34.904;2022-07-01T01:24:11;2.97;;;1.60;;
70744;SDS011;59284;31.390;34.904;2022-07-01T01:30:06;3.80;;;1.60;;
70744;SDS011;59284;31.390;34.904;2022-07-01T01:32:56;4.05;;;1.80;;
70744;SDS011;59284;31.390;34.904;2022-07-01T02:03:06;6.93;;;3.30;;
70744;SDS011;59284;31.390;34.904;2022-07-01T02:11:08;8.43;;;4.07;;
70744;SDS011;59284;31.390;34.904;2022-07-01T02:14:11;14.90;;;4.10;;
70744;SDS011;59284;31.390;34.904;2022-07-01T02:17:34;9.15;;;4.00;;
70744;SDS011;59284;31.390;34.904;2022-07-01T04:07:38;13.60;;;9.00;;
70744;SDS011;59284;31.390;34.904;2022-07-01T04:10:06;15.00;;;9.43;;
70744;SDS011;59284;31.390;34.904;2022-07-01T04:13:36;15.80;;;9.60;;
70744;SDS011;59284;31.390;34.904;2022-07-01T04:19:57;13.73;;;8.02;;
70744;SDS011;59284;31.390;34.904;2022-07-01T04:22:38;15.75;;;8.18;;
70744;SDS011;59284;31.390;34.904;2022-07-01T04:25:29;22.05;;;7.90;;
70744;SDS011;59284;31.390;34.904;2022-07-01T04:42:06;8.73;;;4.83;;
70744;SDS011;59284;31.390;34.904;2022-07-01T04:44:58;8.52;;;5.25;;
70744;SDS011;59284;31.390;34.904;2022-07-01T04:47:27;11.25;;;4.40;;
70744;SDS011;59284;31.390;34.904;2022-07-01T04:49:57;8.23;;;5.78;;
70744;SDS011;59284;31.390;34.904;2022-07-01T04:52:24;8.07;;;5.30;;
70744;SDS011;59284;31.390;34.904;2022-07-01T05:02:37;12.50;;;4.82;;
70744;SDS011;59284;31.390;34.904;2022-07-01T05:18:35;8.18;;;4.78;;
70744;SDS011;59284;31.390;34.904;2022-07-01T05:21:26;9.25;;;4.72;;
70744;SDS011;59284;31.390;34.904;2022-07-01T05:24:50;10.47;;;5.00;;
70744;SDS011;59284;31.390;34.904;2022-07-01T05:36:09;11.55;;;5.63;;
70744;SDS011;59284;31.390;34.904;2022-07-01T05:51:45;6.73;;;3.73;;
70744;SDS011;59284;31.390;34.904;2022-07-01T05:54:11;8.43;;;4.57;;
70744;SDS011;59284;31.390;34.904;2022-07-01T05:56:36;6.73;;;5.23;;
70744;SDS011;59284;31.390;34.904;2022-07-01T05:59:05;7.28;;;4.53;;
70744;SDS011;59284;31.390;34.904;2022-07-01T06:01:31;8.15;;;3.90;;
70744;SDS011;59284;31.390;34.904;2022-07-01T06:03:56;5.90;;;4.07;;
70744;SDS011;59284;31.390;34.904;2022-07-01T06:06:22;7.35;;;3.47;;
70744;SDS011;59284;31.390;34.904;2022-07-01T06:08:48;6.13;;;3.57;;
70744;SDS011;59284;31.390;34.904;2022-07-01T06:11:13;5.90;;;2.80;;
70744;SDS011;59284;31.390;34.904;2022-07-01T06:13:40;4.70;;;2.80;;
70744;SDS011;59284;31.390;34.904;2022-07-01T06:16:05;5.95;;;3.05;;
70744;SDS011;59284;31.390;34.904;2022-07-01T06:18:31;5.73;;;3.40;;
70744;SDS011;59284;31.390;34.904;2022-07-01T06:20:57;4.80;;;3.28;;
70744;SDS011;59284;31.390;34.904;2022-07-01T06:23:23;7.97;;;3.50;;
70744;SDS011;59284;31.390;34.904;2022-07-01T06:25:49;8.73;;;6.20;;
70744;SDS011;59284;31.390;34.904;2022-07-01T06:28:14;5.32;;;3.63;;
70744;SDS011;59284;31.390;34.904;2022-07-01T06:30:40;7.17;;;3.77;;
70744;SDS011;59284;31.390;34.904;2022-07-01T06:33:08;5.28;;;2.90;;
70744;SDS011;59284;31.390;34.904;2022-07-01T06:35:38;6.20;;;2.90;;
70744;SDS011;59284;31.390;34.904;2022-07-01T06:38:10;8.82;;;2.83;;
70744;SDS011;59284;31.390;34.904;2022-07-01T06:40:38;4.47;;;2.38;;
70744;SDS011;59284;31.390;34.904;2022-07-01T06:43:04;4.63;;;1.97;;
70744;SDS011;59284;31.390;34.904;2022-07-01T06:45:30;3.15;;;1.75;;
70744;SDS011;59284;31.390;34.904;2022-07-01T06:47:58;3.90;;;1.97;;
70744;SDS011;59284;31.390;34.904;2022-07-01T06:50:23;4.18;;;2.15;;
70744;SDS011;59284;31.390;34.904;2022-07-01T06:52:49;3.03;;;1.93;;
70744;SDS011;59284;31.390;34.904;2022-07-01T06:55:15;5.97;;;2.03;;
70744;SDS011;59284;31.390;34.904;2022-07-01T06:57:40;3.13;;;1.80;;
70744;SDS011;59284;31.390;34.904;2022-07-01T07:00:06;2.70;;;1.70;;
70744;SDS011;59284;31.390;34.904;2022-07-01T07:02:35;4.47;;;2.13;;
70744;SDS011;59284;31.390;34.904;2022-07-01T07:05:01;5.10;;;2.30;;
70744;SDS011;59284;31.390;34.904;2022-07-01T07:07:26;2.90;;;1.70;;
70744;SDS011;59284;31.390;34.904;2022-07-01T07:09:52;4.13;;;2.30;;
70744;SDS011;59284;31.390;34.904;2022-07-01T07:12:18;4.00;;;2.77;;
70744;SDS011;59284;31.390;34.904;2022-07-01T07:14:44;3.65;;;2.30;;
70744;SDS011;59284;31.390;34.904;2022-07-01T07:17:09;5.57;;;2.60;;
70744;SDS011;59284;31.390;34.904;2022-07-01T07:19:35;5.55;;;2.95;;
70744;SDS011;59284;31.390;34.904;2022-07-01T07:22:00;7.83;;;3.07;;
70744;SDS011;59284;31.390;34.904;2022-07-01T07:24:26;9.83;;;3.00;;
70744;SDS011;59284;31.390;34.904;2022-07-01T07:26:52;9.75;;;2.85;;
70744;SDS011;59284;31.390;34.904;2022-07-01T07:29:17;7.33;;;4.03;;
70744;SDS011;59284;31.390;34.904;2022-07-01T07:31:43;8.35;;;3.50;;
70744;SDS011;59284;31.390;34.904;2022-07-01T07:34:09;8.87;;;4.20;;
70744;SDS011;59284;31.390;34.904;2022-07-01T07:36:34;7.15;;;3.75;;
70744;SDS011;59284;31.390;34.904;2022-07-01T07:39:01;4.95;;;3.72;;
70744;SDS011;59284;31.390;34.904;2022-07-01T07:41:29;8.23;;;3.80;;
70744;SDS011;59284;31.390;34.904;2022-07-01T07:43:55;8.70;;;3.40;;
70744;SDS011;59284;31.390;34.904;2022-07-01T07:46:21;8.03;;;4.03;;
70744;SDS011;59284;31.390;34.904;2022-07-01T07:48:47;7.63;;;4.68;;
70744;SDS011;59284;31.390;34.904;2022-07-01T07:51:12;6.32;;;4.53;;
70744;SDS011;59284;31.390;34.904;2022-07-01T07:53:42;5.90;;;4.13;;
70744;SDS011;59284;31.390;34.904;2022-07-01T07:56:07;8.80;;;5.45;;
70744;SDS011;59284;31.390;34.904;2022-07-01T07:58:33;10.73;;;5.27;;
70744;SDS011;59284;31.390;34.904;2022-07-01T08:00:59;10.23;;;4.45;;
70744;SDS011;59284;31.390;34.904;2022-07-01T08:03:24;6.20;;;4.50;;
70744;SDS011;59284;31.390;34.904;2022-07-01T08:05:50;9.15;;;4.55;;
70744;SDS011;59284;31.390;34.904;2022-07-01T08:08:16;9.20;;;4.30;;
70744;SDS011;59284;31.390;34.904;2022-07-01T08:10:41;5.45;;;4.32;;
70744;SDS011;59284;31.390;34.904;2022-07-01T08:13:07;7.30;;;5.60;;
70744;SDS011;59284;31.390;34.904;2022-07-01T08:15:33;7.93;;;5.00;;
70744;SDS011;59284;31.390;34.904;2022-07-01T08:17:58;9.93;;;6.30;;
70744;SDS011;59284;31.390;34.904;2022-07-01T08:20:24;10.18;;;7.10;;
70744;SDS011;59284;31.390;34.904;2022-07-01T08:22:50;9.97;;;6.67;;
70744;SDS011;59284;31.390;34.904;2022-07-01T08:25:15;8.18;;;5.13;;
70744;SDS011;59284;31.390;34.904;2022-07-01T08:27:41;5.70;;;4.27;;
70744;SDS011;59284;31.390;34.904;2022-07-01T08:30:07;8.23;;;5.00;;
70744;SDS011;59284;31.390;34.904;2022-07-01T08:32:33;8.50;;;4.60;;
70744;SDS011;59284;31.390;34.904;2022-07-01T08:34:59;7.77;;;4.70;;
70744;SDS011;59284;31.390;34.904;2022-07-01T08:37:25;7.32;;;4.95;;
70744;SDS011;59284;31.390;34.904;2022-07-01T08:39:51;9.23;;;4.63;;
70744;SDS011;59284;31.390;34.904;2022-07-01T08:42:28;7.10;;;4.20;;
70744;SDS011;59284;31.390;34.904;2022-07-01T08:44:53;6.88;;;4.60;;
70744;SDS011;59284;31.390;34.904;2022-07-01T08:47:19;6.95;;;4.38;;
70744;SDS011;59284;31.390;34.904;2022-07-01T08:49:45;5.57;;;4.13;;
70744;SDS011;59284;31.390;34.904;2022-07-01T08:52:11;6.78;;;3.70;;
70744;SDS011;59284;31.390;34.904;2022-07-01T08:54:37;8.07;;;3.83;;
70744;SDS011;59284;31.390;34.904;2022-07-01T08:57:06;10.48;;;4.55;;
70744;SDS011;59284;31.390;34.904;2022-07-01T08:59:45;6.18;;;4.07;;
70744;SDS011;59284;31.390;34.904;2022-07-01T09:03:07;9.05;;;4.60;;
70744;SDS011;59284;31.390;34.904;2022-07-01T09:05:28;7.00;;;4.13;;
70744;SDS011;59284;31.390;34.904;2022-07-01T09:07:56;6.30;;;3.80;;
70744;SDS011;59284;31.390;34.904;2022-07-01T09:10:31;11.63;;;4.30;;
70744;SDS011;59284;31.390;34.904;2022-07-01T09:13:05;7.30;;;4.07;;
70744;SDS011;59284;31.390;34.904;2022-07-01T09:15:32;6.28;;;3.85;;
70744;SDS011;59284;31.390;34.904;2022-07-01T09:18:03;4.65;;;3.33;;
70744;SDS011;59284;31.390;34.904;2022-07-01T09:20:38;6.73;;;2.70;;
70744;SDS011;59284;31.390;34.904;2022-07-01T09:23:14;8.82;;;3.15;;
70744;SDS011;59284;31.390;34.904;2022-07-01T09:25:41;7.00;;;3.63;;
70744;SDS011;59284;31.390;34.904;2022-07-01T09:28:14;11.05;;;3.30;;
70744;SDS011;59284;31.390;34.904;2022-07-01T09:30:43;4.28;;;2.35;;
70744;SDS011;59284;31.390;34.904;2022-07-01T09:33:15;5.57;;;3.10;;
70744;SDS011;59284;31.390;34.904;2022-07-01T09:35:43;10.35;;;3.63;;
70744;SDS011;59284;31.390;34.904;2022-07-01T09:38:10;9.10;;;3.65;;
70744;SDS011;59284;31.390;34.904;2022-07-01T09:40:47;9.20;;;4.53;;
70744;SDS011;59284;31.390;34.904;2022-07-01T09:43:22;6.85;;;3.40;;
70744;SDS011;59284;31.390;34.904;2022-07-01T09:45:59;5.57;;;3.53;;
70744;SDS011;59284;31.390;34.904;2022-07-01T09:51:03;4.60;;;2.88;;
70744;SDS011;59284;31.390;34.904;2022-07-01T09:53:32;7.60;;;2.90;;
70744;SDS011;59284;31.390;34.904;2022-07-01T09:55:58;6.75;;;3.47;;
70744;SDS011;59284;31.390;34.904;2022-07-01T09:58:24;4.90;;;3.60;;
70744;SDS011;59284;31.390;34.904;2022-07-01T10:00:51;8.25;;;3.78;;
70744;SDS011;59284;31.390;34.904;2022-07-01T10:03:18;5.22;;;3.55;;
70744;SDS011;59284;31.390;34.904;2022-07-01T10:13:51;7.30;;;3.90;;
70744;SDS011;59284;31.390;34.904;2022-07-01T10:16:18;8.18;;;3.88;;
70744;SDS011;59284;31.390;34.904;2022-07-01T10:18:45;5.25;;;3.55;;
70744;SDS011;59284;31.390;34.904;2022-07-01T10:21:21;10.67;;;3.50;;
70744;SDS011;59284;31.390;34.904;2022-07-01T10:23:52;7.30;;;3.90;;
70744;SDS011;59284;31.390;34.904;2022-07-01T10:26:18;5.82;;;3.65;;
70744;SDS011;59284;31.390;34.904;2022-07-01T10:28:44;5.70;;;3.63;;
70744;SDS011;59284;31.390;34.904;2022-07-01T10:31:13;6.43;;;3.83;;
70744;SDS011;59284;31.390;34.904;2022-07-01T10:41:32;7.40;;;4.10;;
70744;SDS011;59284;31.390;34.904;2022-07-01T10:44:18;7.57;;;3.90;;
70744;SDS011;59284;31.390;34.904;2022-07-01T10:46:45;8.73;;;4.10;;
70744;SDS011;59284;31.390;34.904;2022-07-01T10:49:18;9.40;;;4.00;;
70744;SDS011;59284;31.390;34.904;2022-07-01T10:51:49;9.93;;;4.00;;
70744;SDS011;59284;31.390;34.904;2022-07-01T10:59:49;5.90;;;3.63;;
70744;SDS011;59284;31.390;34.904;2022-07-01T11:02:26;8.23;;;3.65;;
70744;SDS011;59284;31.390;34.904;2022-07-01T11:04:54;8.68;;;3.78;;
70744;SDS011;59284;31.390;34.904;2022-07-01T11:07:25;8.85;;;3.40;;
70744;SDS011;59284;31.390;34.904;2022-07-01T11:09:52;9.00;;;3.53;;
70744;SDS011;59284;31.390;34.904;2022-07-01T11:12:19;9.07;;;3.50;;
70744;SDS011;59284;31.390;34.904;2022-07-01T11:14:48;5.90;;;3.30;;
70744;SDS011;59284;31.390;34.904;2022-07-01T11:17:14;9.95;;;3.42;;
70744;SDS011;59284;31.390;34.904;2022-07-01T11:19:40;5.10;;;3.00;;
70744;SDS011;59284;31.390;34.904;2022-07-01T11:22:17;7.53;;;3.33;;
70744;SDS011;59284;31.390;34.904;2022-07-01T11:24:51;6.37;;;3.40;;
70744;SDS011;59284;31.390;34.904;2022-07-01T11:27:18;5.90;;;3.00;;
70744;SDS011;59284;31.390;34.904;2022-07-01T11:29:43;4.22;;;2.70;;
70744;SDS011;59284;31.390;34.904;2022-07-01T11:32:23;6.37;;;2.70;;
70744;SDS011;59284;31.390;34.904;2022-07-01T11:35:16;10.80;;;3.08;;
70744;SDS011;59284;31.390;34.904;2022-07-01T11:38:15;6.75;;;3.33;;
70744;SDS011;59284;31.390;34.904;2022-07-01T11:41:05;4.93;;;2.70;;
70744;SDS011;59284;31.390;34.904;2022-07-01T11:43:42;7.75;;;3.28;;
70744;SDS011;59284;31.390;34.904;2022-07-01T11:46:08;6.83;;;3.20;;
70744;SDS011;59284;31.390;34.904;2022-07-01T11:53:37;5.30;;;2.40;;
70744;SDS011;59284;31.390;34.904;2022-07-01T11:56:08;5.20;;;2.40;;
70744;SDS011;59284;31.390;34.904;2022-07-01T11:58:47;5.90;;;3.10;;
70744;SDS011;59284;31.390;34.904;2022-07-01T12:03:55;9.15;;;2.75;;
70744;SDS011;59284;31.390;34.904;2022-07-01T12:09:15;5.27;;;2.70;;
70744;SDS011;59284;31.390;34.904;2022-07-01T12:11:48;12.80;;;3.15;;
70744;SDS011;59284;31.390;34.904;2022-07-01T12:19:53;6.60;;;3.25;;
70744;SDS011;59284;31.390;34.904;2022-07-01T12:22:24;6.07;;;2.83;;
70744;SDS011;59284;31.390;34.904;2022-07-01T12:25:11;8.95;;;3.00;;
70744;SDS011;59284;31.390;34.904;2022-07-01T12:27:40;9.02;;;3.50;;
70744;SDS011;59284;31.390;34.904;2022-07-01T12:30:09;6.28;;;3.25;;
70744;SDS011;59284;31.390;34.904;2022-07-01T12:32:37;6.15;;;2.70;;
70744;SDS011;59284;31.390;34.904;2022-07-01T12:35:05;5.43;;;2.90;;
70744;SDS011;59284;31.390;34.904;2022-07-01T12:38:03;10.38;;;3.63;;
70744;SDS011;59284;31.390;34.904;2022-07-01T12:40:32;5.93;;;3.33;;
70744;SDS011;59284;31.390;34.904;2022-07-01T12:42:58;6.30;;;3.40;;
70744;SDS011;59284;31.390;34.904;2022-07-01T12:45:31;8.83;;;3.40;;
70744;SDS011;59284;31.390;34.904;2022-07-01T12:48:04;10.00;;;3.50;;
70744;SDS011;59284;31.390;34.904;2022-07-01T12:50:33;6.82;;;3.65;;
70744;SDS011;59284;31.390;34.904;2022-07-01T12:53:04;5.95;;;3.30;;
70744;SDS011;59284;31.390;34.904;2022-07-01T12:58:03;6.50;;;3.60;;
70744;SDS011;59284;31.390;34.904;2022-07-01T13:00:34;5.22;;;3.75;;
70744;SDS011;59284;31.390;34.904;2022-07-01T13:03:01;4.97;;;4.00;;
70744;SDS011;59284;31.390;34.904;2022-07-01T13:05:28;6.93;;;3.72;;
70744;SDS011;59284;31.390;34.904;2022-07-01T13:07:55;6.60;;;4.30;;
70744;SDS011;59284;31.390;34.904;2022-07-01T13:10:23;5.20;;;3.30;;
70744;SDS011;59284;31.390;34.904;2022-07-01T13:12:49;4.95;;;3.20;;
70744;SDS011;59284;31.390;34.904;2022-07-01T13:15:16;7.63;;;3.35;;
70744;SDS011;59284;31.390;34.904;2022-07-01T13:17:43;6.73;;;3.50;;
70744;SDS011;59284;31.390;34.904;2022-07-01T13:20:10;5.28;;;3.60;;
70744;SDS011;59284;31.390;34.904;2022-07-01T13:22:36;5.88;;;4.07;;
70744;SDS011;59284;31.390;34.904;2022-07-01T13:25:03;6.30;;;3.90;;
70744;SDS011;59284;31.390;34.904;2022-07-01T13:27:29;6.22;;;3.88;;
70744;SDS011;59284;31.390;34.904;2022-07-01T13:29:55;13.67;;;4.20;;
70744;SDS011;59284;31.390;34.904;2022-07-01T13:32:21;16.67;;;4.32;;
70744;SDS011;59284;31.390;34.904;2022-07-01T13:34:47;10.98;;;4.22;;
70744;SDS011;59284;31.390;34.904;2022-07-01T13:37:13;6.53;;;4.13;;
70744;SDS011;59284;31.390;34.904;2022-07-01T13:39:39;10.68;;;4.05;;
70744;SDS011;59284;31.390;34.904;2022-07-01T13:42:05;5.57;;;3.33;;
70744;SDS011;59284;31.390;34.904;2022-07-01T13:44:30;9.80;;;4.30;;
70744;SDS011;59284;31.390;34.904;2022-07-01T13:46:56;6.00;;;4.05;;
70744;SDS011;59284;31.390;34.904;2022-07-01T13:49:22;6.90;;;4.07;;
70744;SDS011;59284;31.390;34.904;2022-07-01T13:51:48;7.65;;;4.38;;
70744;SDS011;59284;31.390;34.904;2022-07-01T13:54:13;5.70;;;4.23;;
70744;SDS011;59284;31.390;34.904;2022-07-01T13:56:39;6.50;;;4.25;;
70744;SDS011;59284;31.390;34.904;2022-07-01T13:59:06;7.05;;;4.53;;
70744;SDS011;59284;31.390;34.904;2022-07-01T14:01:33;7.77;;;4.20;;
70744;SDS011;59284;31.390;34.904;2022-07-01T14:03:59;5.68;;;4.03;;
70744;SDS011;59284;31.390;34.904;2022-07-01T14:06:25;5.32;;;3.88;;
70744;SDS011;59284;31.390;34.904;2022-07-01T14:08:52;5.55;;;4.18;;
70744;SDS011;59284;31.390;34.904;2022-07-01T14:11:18;6.23;;;4.13;;
70744;SDS011;59284;31.390;34.904;2022-07-01T14:13:46;7.57;;;4.40;;
70744;SDS011;59284;31.390;34.904;2022-07-01T14:16:12;5.50;;;3.63;;
70744;SDS011;59284;31.390;34.904;2022-07-01T14:18:37;6.65;;;4.70;;
70744;SDS011;59284;31.390;34.904;2022-07-01T14:21:03;5.73;;;4.30;;
70744;SDS011;59284;31.390;34.904;2022-07-01T14:23:30;5.72;;;4.00;;
70744;SDS011;59284;31.390;34.904;2022-07-01T14:25:56;7.03;;;4.15;;
70744;SDS011;59284;31.390;34.904;2022-07-01T14:28:22;7.45;;;4.82;;
70744;SDS011;59284;31.390;34.904;2022-07-01T14:30:48;5.37;;;4.50;;
70744;SDS011;59284;31.390;34.904;2022-07-01T14:33:15;9.18;;;4.50;;
70744;SDS011;59284;31.390;34.904;2022-07-01T14:35:42;5.28;;;3.70;;
70744;SDS011;59284;31.390;34.904;2022-07-01T14:38:08;8.07;;;4.60;;
70744;SDS011;59284;31.390;34.904;2022-07-01T14:40:35;7.03;;;4.83;;
70744;SDS011;59284;31.390;34.904;2022-07-01T14:43:03;8.00;;;4.70;;
70744;SDS011;59284;31.390;34.904;2022-07-01T14:45:29;8.13;;;5.53;;
70744;SDS011;59284;31.390;34.904;2022-07-01T14:47:58;6.97;;;4.70;;
70744;SDS011;59284;31.390;34.904;2022-07-01T14:50:41;7.22;;;5.10;;
70744;SDS011;59284;31.390;34.904;2022-07-01T14:53:10;7.33;;;5.40;;
70744;SDS011;59284;31.390;34.904;2022-07-01T14:55:36;8.90;;;5.43;;
70744;SDS011;59284;31.390;34.904;2022-07-01T14:58:02;9.40;;;5.05;;
70744;SDS011;59284;31.390;34.904;2022-07-01T15:00:28;11.03;;;4.87;;
70744;SDS011;59284;31.390;34.904;2022-07-01T15:02:56;8.18;;;5.65;;
70744;SDS011;59284;31.390;34.904;2022-07-01T15:05:22;7.97;;;5.60;;
70744;SDS011;59284;31.390;34.904;2022-07-01T15:07:48;6.27;;;5.50;;
70744;SDS011;59284;31.390;34.904;2022-07-01T15:10:14;7.40;;;5.25;;
70744;SDS011;59284;31.390;34.904;2022-07-01T15:12:40;7.82;;;5.60;;
70744;SDS011;59284;31.390;34.904;2022-07-01T15:15:06;8.27;;;5.63;;
70744;SDS011;59284;31.390;34.904;2022-07-01T15:17:32;7.82;;;5.63;;
70744;SDS011;59284;31.390;34.904;2022-07-01T15:19:58;7.55;;;5.57;;
70744;SDS011;59284;31.390;34.904;2022-07-01T15:22:24;7.97;;;5.30;;
70744;SDS011;59284;31.390;34.904;2022-07-01T15:24:50;8.55;;;6.05;;
70744;SDS011;59284;31.390;34.904;2022-07-01T15:27:16;9.67;;;5.80;;
70744;SDS011;59284;31.390;34.904;2022-07-01T15:29:41;17.70;;;5.65;;
70744;SDS011;59284;31.390;34.904;2022-07-01T15:32:07;8.53;;;5.57;;
70744;SDS011;59284;31.390;34.904;2022-07-01T15:34:33;8.68;;;5.78;;
70744;SDS011;59284;31.390;34.904;2022-07-01T15:36:59;8.43;;;5.82;;
70744;SDS011;59284;31.390;34.904;2022-07-01T15:39:25;8.47;;;5.43;;
70744;SDS011;59284;31.390;34.904;2022-07-01T15:41:51;12.25;;;5.30;;
70744;SDS011;59284;31.390;34.904;2022-07-01T15:44:16;11.10;;;5.75;;
70744;SDS011;59284;31.390;34.904;2022-07-01T15:46:42;7.00;;;5.37;;
70744;SDS011;59284;31.390;34.904;2022-07-01T15:49:08;6.95;;;5.40;;
70744;SDS011;59284;31.390;34.904;2022-07-01T15:51:34;8.57;;;5.40;;
70744;SDS011;59284;31.390;34.904;2022-07-01T15:54:01;7.72;;;5.47;;
70744;SDS011;59284;31.390;34.904;2022-07-01T15:56:28;9.30;;;6.30;;
70744;SDS011;59284;31.390;34.904;2022-07-01T15:58:54;11.43;;;6.23;;
70744;SDS011;59284;31.390;34.904;2022-07-01T16:01:20;9.65;;;6.18;;
70744;SDS011;59284;31.390;34.904;2022-07-01T16:03:47;11.32;;;6.25;;
70744;SDS011;59284;31.390;34.904;2022-07-01T16:06:14;11.55;;;6.63;;
70744;SDS011;59284;31.390;34.904;2022-07-01T16:08:47;9.52;;;6.00;;
70744;SDS011;59284;31.390;34.904;2022-07-01T16:11:17;9.10;;;6.17;;
70744;SDS011;59284;31.390;34.904;2022-07-01T16:13:46;11.50;;;6.90;;
70744;SDS011;59284;31.390;34.904;2022-07-01T16:16:20;9.95;;;7.03;;
70744;SDS011;59284;31.390;34.904;2022-07-01T16:18:56;8.70;;;6.55;;
70744;SDS011;59284;31.390;34.904;2022-07-01T16:21:22;11.57;;;6.80;;
70744;SDS011;59284;31.390;34.904;2022-07-01T16:23:49;10.53;;;6.53;;
70744;SDS011;59284;31.390;34.904;2022-07-01T16:26:18;11.15;;;6.05;;
70744;SDS011;59284;31.390;34.904;2022-07-01T16:28:49;6.85;;;6.15;;
70744;SDS011;59284;31.390;34.904;2022-07-01T16:31:16;8.57;;;6.53;;
70744;SDS011;59284;31.390;34.904;2022-07-01T16:33:43;10.30;;;6.93;;
70744;SDS011;59284;31.390;34.904;2022-07-01T16:36:16;14.27;;;8.65;;
70744;SDS011;59284;31.390;34.904;2022-07-01T16:38:54;14.57;;;7.57;;
70744;SDS011;59284;31.390;34.904;2022-07-01T16:44:08;11.23;;;8.13;;
70744;SDS011;59284;31.390;34.904;2022-07-01T16:46:38;11.73;;;7.37;;
70744;SDS011;59284;31.390;34.904;2022-07-01T16:49:25;17.00;;;7.85;;
70744;SDS011;59284;31.390;34.904;2022-07-01T16:51:55;10.75;;;7.75;;
70744;SDS011;59284;31.390;34.904;2022-07-01T16:54:26;10.20;;;7.97;;
70744;SDS011;59284;31.390;34.904;2022-07-01T16:56:58;10.93;;;7.95;;
70744;SDS011;59284;31.390;34.904;2022-07-01T16:59:27;14.73;;;8.20;;
70744;SDS011;59284;31.390;34.904;2022-07-01T17:01:53;11.90;;;8.35;;
70744;SDS011;59284;31.390;34.904;2022-07-01T17:07:11;15.88;;;8.07;;
70744;SDS011;59284;31.390;34.904;2022-07-01T17:09:37;13.60;;;7.27;;
70744;SDS011;59284;31.390;34.904;2022-07-01T17:12:10;10.77;;;7.60;;
70744;SDS011;59284;31.390;34.904;2022-07-01T17:14:38;13.75;;;8.23;;
70744;SDS011;59284;31.390;34.904;2022-07-01T17:17:09;13.38;;;8.30;;
70744;SDS011;59284;31.390;34.904;2022-07-01T17:19:37;23.23;;;9.10;;
70744;SDS011;59284;31.390;34.904;2022-07-01T17:22:04;15.30;;;10.63;;
70744;SDS011;59284;31.390;34.904;2022-07-01T17:24:37;13.38;;;10.20;;
70744;SDS011;59284;31.390;34.904;2022-07-01T17:30:06;14.27;;;10.13;;
70744;SDS011;59284;31.390;34.904;2022-07-01T17:32:42;18.60;;;11.07;;
70744;SDS011;59284;31.390;34.904;2022-07-01T17:35:17;26.40;;;21.80;;
70744;SDS011;59284;31.390;34.904;2022-07-01T17:37:45;21.98;;;13.00;;
70744;SDS011;59284;31.390;34.904;2022-07-01T17:40:12;14.60;;;9.90;;
70744;SDS011;59284;31.390;34.904;2022-07-01T17:42:41;30.42;;;20.92;;
70744;SDS011;59284;31.390;34.904;2022-07-01T17:45:09;16.77;;;9.90;;
70744;SDS011;59284;31.390;34.904;2022-07-01T17:47:35;15.70;;;10.43;;
70744;SDS011;59284;31.390;34.904;2022-07-01T17:50:03;15.30;;;10.13;;
70744;SDS011;59284;31.390;34.904;2022-07-01T17:52:29;10.65;;;9.10;;
70744;SDS011;59284;31.390;34.904;2022-07-01T17:54:56;15.35;;;10.00;;
70744;SDS011;59284;31.390;34.904;2022-07-01T17:57:22;15.60;;;9.30;;
70744;SDS011;59284;31.390;34.904;2022-07-01T17:59:53;15.18;;;10.05;;
70744;SDS011;59284;31.390;34.904;2022-07-01T18:02:21;13.82;;;9.45;;
70744;SDS011;59284;31.390;34.904;2022-07-01T18:04:48;14.40;;;10.05;;
70744;SDS011;59284;31.390;34.904;2022-07-01T18:07:14;13.27;;;9.65;;
70744;SDS011;59284;31.390;34.904;2022-07-01T18:09:40;10.33;;;8.57;;
70744;SDS011;59284;31.390;34.904;2022-07-01T18:12:17;14.88;;;9.93;;
70744;SDS011;59284;31.390;34.904;2022-07-01T18:15:10;13.18;;;9.35;;
70744;SDS011;59284;31.390;34.904;2022-07-01T18:17:58;12.05;;;8.77;;
70744;SDS011;59284;31.390;34.904;2022-07-01T18:25:44;12.07;;;8.48;;
70744;SDS011;59284;31.390;34.904;2022-07-01T18:28:14;10.60;;;8.98;;
70744;SDS011;59284;31.390;34.904;2022-07-01T18:30:47;14.32;;;8.98;;
70744;SDS011;59284;31.390;34.904;2022-07-01T18:33:16;10.82;;;8.80;;
70744;SDS011;59284;31.390;34.904;2022-07-01T18:35:48;14.10;;;9.23;;
70744;SDS011;59284;31.390;34.904;2022-07-01T18:38:16;18.17;;;10.05;;
70744;SDS011;59284;31.390;34.904;2022-07-01T18:40:44;13.75;;;10.07;;
70744;SDS011;59284;31.390;34.904;2022-07-01T18:43:15;15.25;;;9.90;;
70744;SDS011;59284;31.390;34.904;2022-07-01T18:45:41;13.97;;;10.33;;
70744;SDS011;59284;31.390;34.904;2022-07-01T18:48:07;15.73;;;10.52;;
70744;SDS011;59284;31.390;34.904;2022-07-01T18:50:33;16.23;;;10.70;;
70744;SDS011;59284;31.390;34.904;2022-07-01T18:52:58;18.95;;;10.35;;
70744;SDS011;59284;31.390;34.904;2022-07-01T18:55:25;16.55;;;10.90;;
70744;SDS011;59284;31.390;34.904;2022-07-01T18:57:52;17.33;;;10.73;;
70744;SDS011;59284;31.390;34.904;2022-07-01T19:00:19;15.23;;;10.65;;
70744;SDS011;59284;31.390;34.904;2022-07-01T19:02:48;17.38;;;11.30;;
70744;SDS011;59284;31.390;34.904;2022-07-01T19:05:14;18.73;;;11.23;;
70744;SDS011;59284;31.390;34.904;2022-07-01T19:07:40;16.52;;;10.75;;
70744;SDS011;59284;31.390;34.904;2022-07-01T19:10:07;15.32;;;11.20;;
70744;SDS011;59284;31.390;34.904;2022-07-01T19:12:33;16.42;;;11.32;;
70744;SDS011;59284;31.390;34.904;2022-07-01T19:15:00;18.50;;;11.13;;
70744;SDS011;59284;31.390;34.904;2022-07-01T19:17:26;15.23;;;11.30;;
70744;SDS011;59284;31.390;34.904;2022-07-01T19:19:52;16.40;;;11.27;;
70744;SDS011;59284;31.390;34.904;2022-07-01T19:22:18;15.07;;;11.97;;
70744;SDS011;59284;31.390;34.904;2022-07-01T19:24:43;20.42;;;11.93;;
70744;SDS011;59284;31.390;34.904;2022-07-01T19:27:09;14.60;;;11.80;;
70744;SDS011;59284;31.390;34.904;2022-07-01T19:29:35;18.20;;;11.82;;
70744;SDS011;59284;31.390;34.904;2022-07-01T19:32:00;16.27;;;12.00;;
70744;SDS011;59284;31.390;34.904;2022-07-01T19:34:26;16.20;;;12.13;;
70744;SDS011;59284;31.390;34.904;2022-07-01T19:36:52;18.37;;;11.87;;
70744;SDS011;59284;31.390;34.904;2022-07-01T19:39:17;21.65;;;12.73;;
70744;SDS011;59284;31.390;34.904;2022-07-01T19:41:43;14.53;;;11.20;;
70744;SDS011;59284;31.390;34.904;2022-07-01T19:44:09;18.45;;;12.55;;
70744;SDS011;59284;31.390;34.904;2022-07-01T19:46:34;17.73;;;12.23;;
70744;SDS011;59284;31.390;34.904;2022-07-01T19:49:01;20.48;;;13.80;;
70744;SDS011;59284;31.390;34.904;2022-07-01T19:51:34;20.38;;;13.27;;
70744;SDS011;59284;31.390;34.904;2022-07-01T19:54:01;20.92;;;14.25;;
70744;SDS011;59284;31.390;34.904;2022-07-01T19:56:27;21.50;;;15.23;;
70744;SDS011;59284;31.390;34.904;2022-07-01T19:58:53;21.40;;;14.48;;
70744;SDS011;59284;31.390;34.904;2022-07-01T20:01:20;26.75;;;14.93;;
70744;SDS011;59284;31.390;34.904;2022-07-01T20:03:46;25.73;;;15.97;;
70744;SDS011;59284;31.390;34.904;2022-07-01T20:06:12;25.13;;;16.27;;
70744;SDS011;59284;31.390;34.904;2022-07-01T20:08:39;27.08;;;17.42;;
70744;SDS011;59284;31.390;34.904;2022-07-01T20:11:05;25.25;;;17.23;;
70744;SDS011;59284;31.390;34.904;2022-07-01T20:13:31;26.83;;;16.87;;
70744;SDS011;59284;31.390;34.904;2022-07-01T20:15:56;26.37;;;17.13;;
70744;SDS011;59284;31.390;34.904;2022-07-01T20:18:23;28.27;;;18.00;;
70744;SDS011;59284;31.390;34.904;2022-07-01T20:20:50;25.75;;;17.95;;